Time;durP1;ratioP1;P1;durP2;ratioP2;P2;SDS_P1;SDS_P2;PMS_P1;PMS_P2;Temp;Humidity;BMP_temperature;BMP_pressure;BME280_temperature;BME280_humidity;BME280_pressure;Samples;Min_cycle;Max_cycle;Signal;HPM_P1;HPM_P2
2022/03/11 00:01:34;;;;;;;23.47;13.13;;;;;;;0.62;100.00;95706.34;5052082;28;20193;-49
2022/03/11 00:03:59;;;;;;;24.07;13.03;;;;;;;0.59;100.00;95711.63;5052154;28;20183;-57
2022/03/11 00:06:25;;;;;;;23.20;12.87;;;;;;;0.52;100.00;95717.53;5052996;28;20193;-57
2022/03/11 00:08:51;;;;;;;19.50;12.53;;;;;;;0.47;100.00;95711.59;5052580;28;20191;-57
2022/03/11 00:11:17;;;;;;;19.37;11.87;;;;;;;0.44;100.00;95714.94;5052041;28;20203;-58
2022/03/11 00:13:42;;;;;;;23.93;12.30;;;;;;;0.43;100.00;95708.78;5052230;28;20527;-58
2022/03/11 00:16:07;;;;;;;22.63;12.63;;;;;;;0.42;100.00;95717.94;5052074;28;20195;-57
2022/03/11 00:18:33;;;;;;;19.53;11.17;;;;;;;0.37;100.00;95712.81;5051956;28;20288;-64
2022/03/11 00:20:58;;;;;;;18.10;11.23;;;;;;;0.36;100.00;95708.53;5052012;28;20191;-57
2022/03/11 00:23:23;;;;;;;17.70;10.83;;;;;;;0.36;100.00;95705.84;5052134;28;20195;-45
2022/03/11 00:25:49;;;;;;;20.43;10.80;;;;;;;0.45;100.00;95711.94;5053646;28;20183;-45
2022/03/11 00:28:14;;;;;;;17.00;11.17;;;;;;;0.35;100.00;95711.53;5055484;28;20183;-46
2022/03/11 00:30:39;;;;;;;20.63;10.30;;;;;;;0.36;100.00;95713.13;5055213;28;20237;-44
2022/03/11 00:33:05;;;;;;;17.07;10.03;;;;;;;0.34;100.00;95718.81;5055264;28;20184;-45
2022/03/11 00:35:32;;;;;;;17.37;10.40;;;;;;;0.29;100.00;95708.28;5055412;28;20218;-46
2022/03/11 00:37:58;;;;;;;16.80;9.53;;;;;;;0.30;100.00;95715.22;5054984;28;20267;-59
2022/03/11 00:40:23;;;;;;;15.27;9.47;;;;;;;0.22;100.00;95707.25;5055432;28;20184;-46
2022/03/11 00:42:49;;;;;;;17.23;9.80;;;;;;;0.16;100.00;95703.97;5055376;28;20191;-46
2022/03/11 00:45:14;;;;;;;14.83;9.30;;;;;;;0.11;100.00;95709.56;5055597;28;20571;-46
2022/03/11 00:47:40;;;;;;;15.07;9.53;;;;;;;0.05;100.00;95697.44;5055212;28;20186;-47
2022/03/11 00:50:06;;;;;;;17.70;9.57;;;;;;;0.05;100.00;95697.44;5055437;28;20209;-45
2022/03/11 00:52:31;;;;;;;14.67;9.67;;;;;;;-0.02;100.00;95692.63;5055053;28;20279;-47
2022/03/11 00:54:56;;;;;;;16.40;8.73;;;;;;;-0.01;100.00;95709.50;5053922;28;20189;-46
2022/03/11 00:57:22;;;;;;;15.57;8.53;;;;;;;-0.09;99.63;95703.09;5055025;28;20263;-59
2022/03/11 00:59:47;;;;;;;12.97;8.23;;;;;;;-0.11;99.09;95699.13;5054925;28;20190;-55
2022/03/11 01:02:13;;;;;;;13.57;7.93;;;;;;;-0.13;98.72;95696.00;5055286;28;20208;-58
2022/03/11 01:04:38;;;;;;;13.50;7.70;;;;;;;-0.14;97.85;95697.13;5054839;28;20189;-57
2022/03/11 01:07:04;;;;;;;12.33;8.07;;;;;;;-0.22;97.61;95700.66;5054870;28;20187;-55
2022/03/11 01:09:29;;;;;;;12.30;7.63;;;;;;;-0.24;96.49;95689.47;5054662;28;20208;-54
2022/03/11 01:11:55;;;;;;;14.20;8.00;;;;;;;-0.27;95.67;95692.81;5054702;28;20203;-56
2022/03/11 01:14:20;;;;;;;13.07;7.77;;;;;;;-0.30;95.87;95693.44;5054602;28;20248;-49
2022/03/11 01:16:45;;;;;;;15.20;8.03;;;;;;;-0.33;94.34;95691.41;5054838;28;20187;-58
2022/03/11 01:19:11;;;;;;;12.20;7.30;;;;;;;-0.37;94.02;95691.31;5054734;28;20236;-58
2022/03/11 01:21:36;;;;;;;10.63;7.17;;;;;;;-0.37;93.08;95685.13;5054582;28;20195;-58
2022/03/11 01:24:01;;;;;;;12.43;6.83;;;;;;;-0.42;92.79;95693.38;5054951;28;20190;-58
2022/03/11 01:26:27;;;;;;;13.47;7.30;;;;;;;-0.37;91.48;95687.81;5054712;28;20205;-58
2022/03/11 01:28:53;;;;;;;9.77;6.30;;;;;;;-0.43;90.83;95675.75;5054445;28;20170;-58
2022/03/11 01:31:18;;;;;;;13.60;7.50;;;;;;;-0.42;91.12;95672.72;5054881;28;20232;-55
2022/03/11 01:33:45;;;;;;;12.20;6.77;;;;;;;-0.51;91.82;95673.91;5054473;28;20211;-59
2022/03/11 01:36:11;;;;;;;11.70;7.57;;;;;;;-0.57;92.80;95670.63;5054961;28;20190;-59
2022/03/11 01:38:38;;;;;;;11.70;7.07;;;;;;;-0.61;92.41;95674.28;5053276;28;20190;-60
2022/03/11 01:41:04;;;;;;;14.17;7.00;;;;;;;-0.62;91.92;95667.34;5054506;28;20274;-59
2022/03/11 01:43:29;;;;;;;8.77;5.93;;;;;;;-0.65;91.46;95663.41;5054738;28;20223;-59
2022/03/11 01:45:56;;;;;;;9.73;6.50;;;;;;;-0.67;90.37;95675.56;5054087;28;20241;-59
2022/03/11 01:48:21;;;;;;;11.27;6.43;;;;;;;-0.70;89.86;95668.97;5054310;28;20182;-59
2022/03/11 01:50:47;;;;;;;13.63;7.37;;;;;;;-0.72;89.33;95670.41;5054247;28;20186;-57
2022/03/11 01:53:13;;;;;;;9.37;5.97;;;;;;;-0.78;89.63;95669.00;5054263;28;20196;-60
2022/03/11 01:55:39;;;;;;;10.43;6.10;;;;;;;-0.79;89.02;95667.44;5055051;28;20190;-61
2022/03/11 01:58:05;;;;;;;9.30;5.10;;;;;;;-0.80;88.35;95660.53;5053846;28;20236;-61
2022/03/11 02:00:32;;;;;;;10.30;5.90;;;;;;;-0.83;87.95;95658.50;5053940;28;20917;-61
2022/03/11 02:02:57;;;;;;;10.23;5.70;;;;;;;-0.83;87.78;95653.13;5054179;28;20275;-61
2022/03/11 02:05:24;;;;;;;10.50;5.80;;;;;;;-0.85;87.29;95655.34;5053851;28;20186;-61
2022/03/11 02:07:49;;;;;;;8.33;5.20;;;;;;;-0.91;87.40;95652.06;5053857;28;20214;-61
2022/03/11 02:10:16;;;;;;;10.53;5.90;;;;;;;-0.91;87.83;95659.34;5053848;28;20197;-60
2022/03/11 02:12:42;;;;;;;11.03;6.07;;;;;;;-0.92;86.99;95647.81;5053748;28;20242;-56
2022/03/11 02:15:09;;;;;;;10.70;5.77;;;;;;;-1.01;87.56;95643.63;5053785;28;20209;-56
2022/03/11 02:17:34;;;;;;;9.27;5.50;;;;;;;-0.98;86.34;95653.69;5053155;28;20244;-56
2022/03/11 02:20:00;;;;;;;7.50;4.80;;;;;;;-0.96;85.33;95646.09;5053196;28;20273;-56
2022/03/11 02:22:26;;;;;;;9.33;5.23;;;;;;;-0.93;85.04;95650.81;5053567;28;20194;-55
2022/03/11 02:24:55;;;;;;;10.73;5.40;;;;;;;-1.02;85.31;95655.44;5053572;28;20182;-56
2022/03/11 02:27:21;;;;;;;8.20;4.67;;;;;;;-1.05;85.10;95661.44;5053819;28;20189;-56
2022/03/11 02:29:46;;;;;;;11.00;6.13;;;;;;;-1.08;85.61;95660.22;5053672;28;20276;-61
2022/03/11 02:32:12;;;;;;;8.83;5.10;;;;;;;-1.08;84.89;95654.06;5053302;28;20205;-51
2022/03/11 02:34:38;;;;;;;10.07;5.40;;;;;;;-1.10;84.48;95659.72;5053185;28;20205;-52
2022/03/11 02:37:08;;;;;;;9.47;5.87;;;;;;;-1.10;85.51;95656.25;5053489;28;20193;-49
2022/03/11 02:39:34;;;;;;;7.40;5.33;;;;;;;-1.16;84.69;95660.25;5053707;28;20194;-52
2022/03/11 02:42:00;;;;;;;7.43;5.17;;;;;;;-1.22;85.04;95653.47;5053590;28;20734;-46
2022/03/11 02:44:29;;;;;;;8.80;5.03;;;;;;;-1.27;85.63;95653.69;5053337;28;20280;-47
2022/03/11 02:46:54;;;;;;;10.13;5.30;;;;;;;-1.30;86.38;95652.44;5053319;28;20190;-46
2022/03/11 02:49:20;;;;;;;10.37;5.23;;;;;;;-1.35;85.82;95654.50;5053481;28;20182;-58
2022/03/11 02:51:45;;;;;;;9.00;5.03;;;;;;;-1.38;85.59;95649.78;5053478;28;20240;-57
2022/03/11 02:54:10;;;;;;;8.40;4.80;;;;;;;-1.45;85.89;95652.16;5053168;28;20198;-58
2022/03/11 02:56:36;;;;;;;9.97;4.80;;;;;;;-1.44;85.43;95656.41;5053642;28;20193;-58
2022/03/11 02:59:01;;;;;;;8.63;5.00;;;;;;;-1.48;86.06;95655.47;5053198;28;20174;-58
2022/03/11 03:01:26;;;;;;;9.63;5.07;;;;;;;-1.44;85.91;95648.38;5053116;28;20212;-58
2022/03/11 03:03:51;;;;;;;7.93;5.07;;;;;;;-1.50;85.70;95646.97;5052783;28;20214;-58
2022/03/11 03:06:17;;;;;;;7.77;4.63;;;;;;;-1.55;86.42;95649.84;5053030;28;20193;-59
2022/03/11 03:08:42;;;;;;;11.40;5.63;;;;;;;-1.56;86.73;95646.34;5052991;28;20250;-47
2022/03/11 03:11:07;;;;;;;7.97;5.20;;;;;;;-1.58;86.69;95647.78;5052991;28;20229;-45
2022/03/11 03:13:33;;;;;;;10.50;4.97;;;;;;;-1.60;86.52;95636.63;5052915;28;20186;-48
2022/03/11 03:15:58;;;;;;;8.10;4.87;;;;;;;-1.59;87.22;95643.56;5052859;28;20178;-48
2022/03/11 03:18:24;;;;;;;8.60;4.90;;;;;;;-1.60;87.24;95631.28;5052614;28;20217;-46
2022/03/11 03:20:49;;;;;;;7.37;4.93;;;;;;;-1.64;87.30;95638.38;5052843;28;20221;-46
2022/03/11 03:23:15;;;;;;;9.40;5.20;;;;;;;-1.69;87.61;95641.22;5052934;28;20189;-47
2022/03/11 03:25:41;;;;;;;7.03;5.13;;;;;;;-1.63;87.17;95647.97;5052701;28;20213;-49
2022/03/11 03:28:07;;;;;;;9.67;5.13;;;;;;;-1.67;87.25;95641.69;5052549;28;20190;-50
2022/03/11 03:30:32;;;;;;;10.30;5.07;;;;;;;-1.71;87.67;95635.41;5052043;28;20189;-48
2022/03/11 03:32:58;;;;;;;8.77;5.27;;;;;;;-1.71;88.13;95635.41;5052107;28;20296;-49
2022/03/11 03:35:23;;;;;;;7.17;4.80;;;;;;;-1.73;88.17;95638.41;5052750;28;20224;-46
2022/03/11 03:37:48;;;;;;;9.97;5.50;;;;;;;-1.75;88.46;95645.19;5053489;28;20192;-46
2022/03/11 03:40:14;;;;;;;10.90;5.47;;;;;;;-1.69;88.11;95633.19;5052174;28;20552;-46
2022/03/11 03:42:44;;;;;;;6.90;4.80;;;;;;;-1.70;88.41;95634.31;5053314;28;20193;-48
2022/03/11 03:45:10;;;;;;;7.80;5.37;;;;;;;-1.72;88.32;95631.16;5052530;28;20323;-58
2022/03/11 03:47:35;;;;;;;9.97;5.50;;;;;;;-1.73;88.47;95624.22;5052265;28;20244;-56
2022/03/11 03:50:00;;;;;;;9.07;5.33;;;;;;;-1.69;89.13;95627.84;5053946;28;20178;-51
2022/03/11 03:52:27;;;;;;;13.17;6.10;;;;;;;-1.70;89.43;95620.91;5052470;28;20201;-53
2022/03/11 03:54:53;;;;;;;9.60;5.47;;;;;;;-1.69;89.17;95623.28;5053340;28;20174;-55
2022/03/11 03:57:18;;;;;;;10.37;5.70;;;;;;;-1.76;89.10;95622.19;5052447;28;20193;-55
2022/03/11 03:59:43;;;;;;;11.10;5.10;;;;;;;-1.80;90.18;95621.25;5052380;28;20220;-59
2022/03/11 04:02:09;;;;;;;10.20;5.77;;;;;;;-1.85;90.55;95618.75;5055104;28;20216;-52
2022/03/11 04:04:35;;;;;;;7.30;5.37;;;;;;;-1.93;91.43;95611.56;5056296;28;20545;-58
2022/03/11 04:07:00;;;;;;;9.53;5.37;;;;;;;-1.99;92.58;95613.59;5055541;28;20189;-57
2022/03/11 04:09:25;;;;;;;13.43;5.90;;;;;;;-2.06;93.28;95617.84;5055894;28;20185;-55
2022/03/11 04:11:51;;;;;;;16.37;7.90;;;;;;;-2.10;93.90;95616.94;5055580;28;20210;-55
2022/03/11 04:14:16;;;;;;;19.93;9.00;;;;;;;-2.16;94.91;95618.19;5056095;28;20189;-56
2022/03/11 04:16:41;;;;;;;15.70;7.43;;;;;;;-2.15;95.05;95625.88;5055580;28;20276;-57
2022/03/11 04:19:07;;;;;;;10.67;6.20;;;;;;;-2.15;95.80;95625.13;5055596;28;20182;-59
2022/03/11 04:21:32;;;;;;;10.90;5.83;;;;;;;-2.18;96.12;95625.75;5056191;28;20189;-59
2022/03/11 04:23:57;;;;;;;10.83;5.73;;;;;;;-2.25;97.55;95626.25;5055502;28;20242;-59
2022/03/11 04:26:23;;;;;;;10.00;6.10;;;;;;;-2.28;98.03;95631.41;5056061;28;20182;-60
2022/03/11 04:28:48;;;;;;;10.43;5.43;;;;;;;-2.32;98.31;95639.28;5055375;28;20208;-59
2022/03/11 04:31:13;;;;;;;9.33;6.00;;;;;;;-2.31;99.54;95632.03;5055418;28;20198;-60
2022/03/11 04:33:42;;;;;;;11.47;5.40;;;;;;;-2.33;99.76;95634.25;5055846;28;20193;-60
2022/03/11 04:36:08;;;;;;;9.93;5.87;;;;;;;-2.34;100.00;95635.38;5054521;28;20190;-55
2022/03/11 04:38:34;;;;;;;8.57;5.47;;;;;;;-2.35;100.00;95631.09;5056289;28;20198;-59
2022/03/11 04:41:00;;;;;;;11.13;5.97;;;;;;;-2.33;100.00;95629.69;5054892;28;20186;-60
2022/03/11 04:43:29;;;;;;;13.07;6.10;;;;;;;-2.36;100.00;95629.53;5054467;28;20681;-57
2022/03/11 04:45:54;;;;;;;10.67;6.17;;;;;;;-2.34;100.00;95630.78;5055074;28;20186;-57
2022/03/11 04:48:19;;;;;;;9.07;5.37;;;;;;;-2.34;100.00;95632.69;5055078;28;20212;-58
2022/03/11 04:50:45;;;;;;;9.27;5.97;;;;;;;-2.36;100.00;95618.84;5054909;28;20189;-57
2022/03/11 04:53:11;;;;;;;10.77;6.20;;;;;;;-2.41;100.00;95622.47;5055114;28;20194;-56
2022/03/11 04:55:36;;;;;;;10.20;6.57;;;;;;;-2.43;100.00;95623.88;5055076;28;20224;-61
2022/03/11 04:58:02;;;;;;;9.50;6.00;;;;;;;-2.43;100.00;95618.53;5055135;28;20296;-60
2022/03/11 05:00:28;;;;;;;11.10;6.00;;;;;;;-2.48;100.00;95608.78;5055020;28;20213;-61
2022/03/11 05:02:54;;;;;;;10.33;5.80;;;;;;;-2.48;100.00;95616.03;5054914;28;20216;-64
2022/03/11 05:05:20;;;;;;;11.70;6.27;;;;;;;-2.47;100.00;95607.69;5055044;28;20182;-58
2022/03/11 05:07:46;;;;;;;13.83;5.83;;;;;;;-2.48;100.00;95606.09;5054877;28;20221;-64
2022/03/11 05:10:15;;;;;;;10.00;5.60;;;;;;;-2.46;100.00;95603.13;5054793;28;20186;-63
2022/03/11 05:12:41;;;;;;;11.87;5.93;;;;;;;-2.45;100.00;95610.84;5053403;28;20225;-54
2022/03/11 05:15:08;;;;;;;14.37;6.73;;;;;;;-2.47;100.00;95601.56;5054786;28;20201;-59
2022/03/11 05:17:33;;;;;;;15.70;6.73;;;;;;;-2.47;100.00;95596.22;5054775;28;20246;-56
2022/03/11 05:19:59;;;;;;;13.67;7.00;;;;;;;-2.45;100.00;95602.81;5055047;28;20265;-56
2022/03/11 05:22:24;;;;;;;14.00;6.00;;;;;;;-2.46;100.00;95603.91;5054479;28;20236;-54
2022/03/11 05:24:50;;;;;;;13.37;6.60;;;;;;;-2.43;100.00;95592.59;5054721;28;20193;-56
2022/03/11 05:27:16;;;;;;;10.30;5.87;;;;;;;-2.41;100.00;95594.97;5054789;28;20209;-56
2022/03/11 05:29:41;;;;;;;12.47;6.43;;;;;;;-2.42;100.00;95596.03;5055304;28;20190;-56
2022/03/11 05:32:07;;;;;;;13.23;6.67;;;;;;;-2.45;100.00;95594.03;5054516;28;20206;-58
2022/03/11 05:34:34;;;;;;;12.57;5.63;;;;;;;-2.44;100.00;95601.69;5054944;28;20259;-46
2022/03/11 05:37:00;;;;;;;14.77;7.40;;;;;;;-2.43;100.00;95595.28;5054124;28;20182;-47
2022/03/11 05:39:25;;;;;;;10.90;6.70;;;;;;;-2.43;100.00;95592.59;5054616;28;20182;-46
2022/03/11 05:41:50;;;;;;;10.90;6.13;;;;;;;-2.47;100.00;95596.22;5054289;28;20217;-46
2022/03/11 05:44:19;;;;;;;10.00;6.23;;;;;;;-2.43;100.00;95597.94;5054741;28;20193;-45
2022/03/11 05:46:45;;;;;;;10.77;6.60;;;;;;;-2.31;100.00;95605.31;5054856;28;20239;-49
2022/03/11 05:49:11;;;;;;;11.50;6.43;;;;;;;-2.12;100.00;95600.44;5054371;28;20205;-47
2022/03/11 05:51:37;;;;;;;10.60;6.43;;;;;;;-2.06;100.00;95597.25;5054350;28;20208;-51
2022/03/11 05:54:03;;;;;;;13.37;6.53;;;;;;;-1.81;100.00;95590.25;5054377;28;20269;-64
2022/03/11 05:56:28;;;;;;;12.13;6.90;;;;;;;-1.54;100.00;95592.50;5053719;28;20212;-65
2022/03/11 05:58:53;;;;;;;10.80;6.47;;;;;;;-1.26;100.00;95593.66;5053906;28;20178;-64
2022/03/11 06:01:19;;;;;;;14.17;6.80;;;;;;;-0.72;97.06;95600.72;5053901;28;20203;-64
2022/03/11 06:03:46;;;;;;;12.13;6.83;;;;;;;-0.10;92.05;95598.78;5054023;28;20303;-65
2022/03/11 06:06:12;;;;;;;11.77;7.00;;;;;;;0.51;86.75;95602.38;5053682;28;20183;-62
2022/03/11 06:08:37;;;;;;;10.60;6.87;;;;;;;1.00;82.51;95599.38;5054008;28;20257;-59
2022/03/11 06:11:02;;;;;;;13.23;6.67;;;;;;;1.79;78.59;95604.78;5054083;28;20180;-62
2022/03/11 06:13:28;;;;;;;10.60;6.80;;;;;;;1.97;76.65;95600.69;5053839;28;20181;-60
2022/03/11 06:15:53;;;;;;;13.43;7.10;;;;;;;2.45;73.27;95610.44;5053782;28;20182;-60
2022/03/11 06:18:18;;;;;;;11.43;7.23;;;;;;;2.17;72.27;95613.19;5053707;28;20178;-60
2022/03/11 06:20:45;;;;;;;11.73;6.67;;;;;;;2.36;71.88;95607.91;5053543;28;20169;-61
2022/03/11 06:23:10;;;;;;;11.73;7.47;;;;;;;2.85;69.96;95606.44;5053224;28;20269;-61
2022/03/11 06:25:36;;;;;;;12.43;7.60;;;;;;;3.39;67.21;95612.75;5053696;28;20210;-61
2022/03/11 06:28:01;;;;;;;13.77;7.43;;;;;;;3.90;63.89;95615.38;5053580;28;20204;-61
2022/03/11 06:30:29;;;;;;;12.53;8.07;;;;;;;3.50;64.61;95613.75;5053298;28;20193;-45
2022/03/11 06:32:54;;;;;;;11.87;8.37;;;;;;;3.30;65.98;95614.84;5053090;28;20251;-45
2022/03/11 06:35:19;;;;;;;10.67;7.13;;;;;;;3.78;64.13;95623.63;5053803;28;20183;-44
2022/03/11 06:37:47;;;;;;;10.33;7.40;;;;;;;3.98;62.41;95619.78;5053274;28;20195;-45
2022/03/11 06:40:13;;;;;;;12.07;8.03;;;;;;;4.31;61.52;95625.44;5053769;28;20185;-46
2022/03/11 06:42:44;;;;;;;14.93;7.53;;;;;;;5.09;58.47;95628.38;5054488;28;20182;-45
2022/03/11 06:45:11;;;;;;;11.50;7.53;;;;;;;3.88;60.70;95625.72;5054165;28;20189;-58
2022/03/11 06:47:36;;;;;;;14.20;8.23;;;;;;;4.13;61.46;95625.13;5053213;28;20206;-63
2022/03/11 06:50:03;;;;;;;12.87;7.67;;;;;;;4.54;59.75;95627.06;5053065;28;20178;-64
2022/03/11 06:52:29;;;;;;;13.13;7.70;;;;;;;4.59;59.58;95636.81;5053487;28;20216;-64
2022/03/11 06:54:54;;;;;;;14.03;7.87;;;;;;;4.43;58.98;95636.09;5053432;28;20181;-64
2022/03/11 06:57:20;;;;;;;11.47;7.90;;;;;;;5.28;57.98;95633.75;5053514;28;20195;-64
2022/03/11 06:59:47;;;;;;;12.43;7.53;;;;;;;5.77;56.52;95626.34;5053032;28;20181;-65
2022/03/11 07:02:13;;;;;;;11.83;7.87;;;;;;;6.37;54.16;95627.88;5052838;28;20301;-65
2022/03/11 07:04:38;;;;;;;13.10;8.10;;;;;;;5.35;54.19;95640.03;5052706;28;20217;-47
2022/03/11 07:07:04;;;;;;;10.77;8.10;;;;;;;4.80;58.69;95639.88;5052867;28;20216;-64
2022/03/11 07:09:29;;;;;;;13.00;8.67;;;;;;;6.46;53.66;95631.09;5052965;28;20190;-64
2022/03/11 07:12:01;;;;;;;14.50;8.27;;;;;;;6.27;51.95;95647.53;5052680;28;20287;-63
2022/03/11 07:14:38;;;;;;;18.37;8.33;;;;;;;5.69;54.48;95636.28;5053649;28;20280;-64
2022/03/11 07:17:05;;;;;;;12.37;8.63;;;;;;;5.21;55.31;95642.50;5052876;28;20185;-64
2022/03/11 07:19:30;;;;;;;12.57;8.67;;;;;;;5.24;56.48;95641.03;5052634;28;20183;-63
2022/03/11 07:21:57;;;;;;;12.37;8.67;;;;;;;6.26;52.99;95652.19;5053028;28;20200;-60
2022/03/11 07:24:22;;;;;;;12.10;8.73;;;;;;;5.32;55.25;95653.53;5052572;28;20220;-62
2022/03/11 07:26:47;;;;;;;11.17;8.50;;;;;;;5.39;56.11;95642.81;5052662;28;20182;-63
2022/03/11 07:29:13;;;;;;;13.23;8.77;;;;;;;5.89;54.72;95651.31;5053357;28;20315;-63
2022/03/11 07:31:39;;;;;;;15.70;10.93;;;;;;;6.85;53.30;95643.16;5051639;28;20213;-62
2022/03/11 07:34:04;;;;;;;14.80;8.93;;;;;;;7.24;51.16;95649.72;5052964;28;20287;-62
2022/03/11 07:36:30;;;;;;;14.03;8.60;;;;;;;7.77;49.21;95656.34;5051314;28;20209;-63
2022/03/11 07:38:56;;;;;;;15.03;8.50;;;;;;;8.36;46.96;95645.03;5052814;28;20195;-63
2022/03/11 07:41:22;;;;;;;14.60;8.60;;;;;;;7.34;48.15;95659.09;5052728;28;20256;-45
2022/03/11 07:43:47;;;;;;;12.70;8.60;;;;;;;6.92;49.65;95651.34;5052325;28;20188;-45
2022/03/11 07:46:16;;;;;;;11.63;8.53;;;;;;;6.50;52.58;95653.63;5052367;28;20197;-47
2022/03/11 07:48:42;;;;;;;12.53;8.63;;;;;;;7.53;49.43;95646.06;5053430;28;20201;-47
2022/03/11 07:51:08;;;;;;;13.40;8.53;;;;;;;7.85;48.15;95641.63;5052357;28;20188;-46
2022/03/11 07:53:34;;;;;;;14.03;8.60;;;;;;;8.56;46.14;95642.78;5052358;28;20335;-45
2022/03/11 07:55:59;;;;;;;12.97;8.47;;;;;;;8.29;46.67;95645.00;5052576;28;20189;-50
2022/03/11 07:58:25;;;;;;;10.63;8.63;;;;;;;7.48;47.72;95659.22;5052184;28;20197;-57
2022/03/11 08:00:52;;;;;;;13.13;9.10;;;;;;;7.93;48.12;95654.09;5052446;28;20214;-58
2022/03/11 08:03:18;;;;;;;11.90;9.00;;;;;;;8.36;46.97;95638.81;5052019;28;20249;-53
2022/03/11 08:05:43;;;;;;;13.83;9.40;;;;;;;9.75;44.80;95632.78;5052073;28;20276;-58
2022/03/11 08:08:09;;;;;;;13.13;9.60;;;;;;;10.08;43.01;95640.56;5052263;28;20212;-56
2022/03/11 08:10:36;;;;;;;10.93;8.70;;;;;;;8.76;44.28;95642.06;5052145;28;20186;-55
2022/03/11 08:13:03;;;;;;;13.47;9.10;;;;;;;11.06;42.49;95633.88;5052155;28;20221;-56
2022/03/11 08:15:28;;;;;;;13.40;9.13;;;;;;;9.82;42.37;95632.78;5052269;28;20188;-56
2022/03/11 08:17:54;;;;;;;12.17;8.83;;;;;;;9.66;41.31;95635.13;5052551;28;20186;-60
2022/03/11 08:20:19;;;;;;;12.50;9.00;;;;;;;8.58;44.23;95638.50;5051876;28;20186;-63
2022/03/11 08:22:45;;;;;;;12.77;9.33;;;;;;;8.88;43.90;95633.53;5051848;28;20217;-64
2022/03/11 08:25:12;;;;;;;10.87;8.30;;;;;;;9.98;42.12;95630.41;5051554;28;20193;-63
2022/03/11 08:27:41;;;;;;;14.00;9.00;;;;;;;8.82;43.90;95634.31;5051958;28;20189;-63
2022/03/11 08:30:08;;;;;;;12.47;8.80;;;;;;;8.86;43.98;95633.13;5052691;28;20190;-63
2022/03/11 08:32:33;;;;;;;12.10;9.40;;;;;;;9.06;43.84;95628.09;5051408;28;20202;-63
2022/03/11 08:34:58;;;;;;;12.07;9.03;;;;;;;9.27;42.79;95626.19;5051776;28;20186;-60
2022/03/11 08:37:24;;;;;;;12.37;9.23;;;;;;;10.13;42.62;95621.03;5051713;28;20174;-45
2022/03/11 08:39:50;;;;;;;12.80;8.70;;;;;;;10.24;42.20;95615.56;5052143;28;20243;-46
2022/03/11 08:42:16;;;;;;;14.37;9.13;;;;;;;11.24;40.16;95614.63;5051746;28;20276;-46
2022/03/11 08:44:42;;;;;;;14.63;10.63;;;;;;;11.89;39.47;95609.03;5052988;28;20178;-45
2022/03/11 08:47:07;;;;;;;13.13;9.00;;;;;;;13.01;38.29;95613.94;5053242;28;20181;-48
2022/03/11 08:49:32;;;;;;;11.13;8.53;;;;;;;12.30;37.82;95615.22;5055181;28;20182;-48
2022/03/11 08:51:58;;;;;;;11.73;8.87;;;;;;;10.69;39.80;95614.59;5055012;28;20197;-45
2022/03/11 08:54:23;;;;;;;9.93;8.70;;;;;;;11.31;39.51;95611.84;5055109;28;20203;-50
2022/03/11 08:56:48;;;;;;;12.83;9.50;;;;;;;10.19;41.87;95609.75;5055022;28;20189;-48
2022/03/11 08:59:14;;;;;;;9.90;8.70;;;;;;;11.74;39.19;95602.94;5055070;28;20200;-46
2022/03/11 09:01:39;;;;;;;14.30;10.13;;;;;;;12.38;38.08;95586.56;5054754;28;20312;-50
2022/03/11 09:04:05;;;;;;;18.67;14.43;;;;;;;13.18;37.57;95590.22;5055010;28;20182;-46
2022/03/11 09:06:31;;;;;;;11.67;8.13;;;;;;;12.60;36.86;95596.06;5055337;28;20221;-51
2022/03/11 09:08:57;;;;;;;11.63;8.37;;;;;;;13.03;36.55;95589.66;5055571;28;20236;-48
2022/03/11 09:11:22;;;;;;;14.80;9.83;;;;;;;12.20;37.49;95586.03;5054981;28;20212;-47
2022/03/11 09:13:49;;;;;;;11.73;9.10;;;;;;;11.15;38.81;95595.94;5054965;28;20189;-47
2022/03/11 09:16:26;;;;;;;12.80;8.93;;;;;;;11.98;38.53;95590.19;5054903;28;20173;-59
2022/03/11 09:18:53;;;;;;;10.57;9.23;;;;;;;11.20;39.94;95594.75;5054871;28;20650;-59
2022/03/11 09:21:18;;;;;;;10.80;9.07;;;;;;;11.17;39.89;95590.06;5054535;28;20202;-59
2022/03/11 09:23:44;;;;;;;12.00;8.97;;;;;;;10.94;40.41;95587.13;5054605;28;20190;-60
2022/03/11 09:26:09;;;;;;;12.87;8.87;;;;;;;10.70;40.64;95590.78;5055311;28;20178;-59
2022/03/11 09:28:35;;;;;;;11.07;8.70;;;;;;;10.31;40.54;95603.84;5054289;28;20190;-58
2022/03/11 09:31:02;;;;;;;13.17;8.83;;;;;;;9.92;41.92;95593.03;5054360;28;20643;-59
2022/03/11 09:33:28;;;;;;;11.00;8.50;;;;;;;10.78;40.72;95597.75;5055713;28;20274;-44
2022/03/11 09:35:53;;;;;;;12.90;8.93;;;;;;;10.36;41.23;95589.78;5054437;28;20205;-45
2022/03/11 09:38:18;;;;;;;11.37;8.47;;;;;;;11.09;41.00;95583.09;5055328;28;20304;-45
2022/03/11 09:40:45;;;;;;;10.47;8.57;;;;;;;11.86;40.09;95577.78;5054696;28;20188;-45
2022/03/11 09:43:15;;;;;;;10.23;8.47;;;;;;;12.55;38.07;95582.84;5054588;28;20212;-46
2022/03/11 09:45:41;;;;;;;11.70;9.00;;;;;;;10.96;40.03;95590.25;5054197;28;20197;-46
2022/03/11 09:48:08;;;;;;;11.47;9.03;;;;;;;11.55;39.37;95594.47;5054601;28;20185;-45
2022/03/11 09:50:34;;;;;;;11.47;9.00;;;;;;;11.53;38.86;95596.81;5054275;28;20192;-64
2022/03/11 09:53:02;;;;;;;13.37;9.07;;;;;;;12.11;38.65;95593.94;5054327;28;20220;-45
2022/03/11 09:55:27;;;;;;;10.67;8.77;;;;;;;12.04;37.79;95588.53;5054563;28;20643;-45
2022/03/11 09:57:53;;;;;;;11.40;8.73;;;;;;;11.36;39.53;95589.56;5054312;28;20265;-46
2022/03/11 10:00:18;;;;;;;10.87;8.57;;;;;;;11.42;39.18;95588.72;5053781;28;20190;-46
2022/03/11 10:02:47;;;;;;;11.07;8.73;;;;;;;10.32;40.32;95600.72;5054187;28;20206;-47
2022/03/11 10:05:13;;;;;;;13.50;8.77;;;;;;;10.75;41.01;95587.63;5054085;28;20178;-49
2022/03/11 10:07:38;;;;;;;11.77;7.67;;;;;;;11.21;39.27;95586.13;5054457;28;20182;-59
2022/03/11 10:10:16;;;;;;;10.50;8.43;;;;;;;11.52;39.16;95585.13;5054471;28;20212;-60
2022/03/11 10:12:46;;;;;;;12.27;8.80;;;;;;;11.25;39.82;95578.69;5053650;28;20199;-59
2022/03/11 10:15:13;;;;;;;14.30;8.70;;;;;;;11.65;39.01;95579.97;5053749;28;20189;-60
2022/03/11 10:17:44;;;;;;;14.37;8.93;;;;;;;12.28;38.52;95565.59;5053808;28;20193;-59
2022/03/11 10:20:12;;;;;;;13.17;9.60;;;;;;;11.96;37.45;95567.91;5054198;28;20165;-59
2022/03/11 10:22:40;;;;;;;10.63;8.50;;;;;;;12.95;36.67;95563.50;5053396;28;20244;-60
2022/03/11 10:25:09;;;;;;;13.63;9.00;;;;;;;12.55;36.90;95566.41;5053828;28;20178;-46
2022/03/11 10:27:52;;;;;;;11.13;8.73;;;;;;;12.29;37.12;95564.41;5053596;28;20224;-44
2022/03/11 10:30:18;;;;;;;10.73;8.80;;;;;;;11.69;38.57;95575.22;5053904;28;20255;-45
2022/03/11 10:32:51;;;;;;;11.07;8.90;;;;;;;12.15;38.02;95572.78;5053013;28;20194;-46
2022/03/11 10:35:18;;;;;;;12.40;8.97;;;;;;;12.36;37.76;95572.53;5054379;28;20193;-47
2022/03/11 10:37:59;;;;;;;11.73;9.03;;;;;;;12.13;37.47;95564.97;5053298;28;20214;-46
2022/03/11 10:40:25;;;;;;;13.03;9.17;;;;;;;13.17;37.25;95555.75;5054006;28;20184;-45
2022/03/11 10:43:08;;;;;;;12.97;9.43;;;;;;;13.23;36.06;95560.34;5052914;28;20308;-45
2022/03/11 10:45:47;;;;;;;10.63;8.80;;;;;;;12.93;36.39;95562.38;5053369;28;20231;-45
2022/03/11 10:48:13;;;;;;;11.53;8.80;;;;;;;12.48;36.80;95569.25;5053208;28;20738;-63
2022/03/11 10:50:39;;;;;;;10.07;8.50;;;;;;;12.25;37.16;95563.66;5053275;28;20272;-63
2022/03/11 10:53:10;;;;;;;11.87;9.33;;;;;;;11.87;37.02;95567.63;5053151;28;20280;-64
2022/03/11 10:55:39;;;;;;;11.60;9.10;;;;;;;11.85;38.23;95559.03;5053183;28;20208;-63
2022/03/11 10:58:06;;;;;;;10.83;8.53;;;;;;;12.70;36.80;95556.81;5053096;28;20190;-64
2022/03/11 11:00:41;;;;;;;11.63;9.07;;;;;;;12.46;36.58;95561.44;5053238;28;20214;-63
2022/03/11 11:03:09;;;;;;;12.03;8.73;;;;;;;12.28;37.30;95565.59;5053055;28;20213;-60
2022/03/11 11:05:35;;;;;;;12.57;8.97;;;;;;;12.48;36.88;95558.28;5052856;28;20193;-57
2022/03/11 11:08:03;;;;;;;11.33;8.70;;;;;;;11.69;37.99;95550.59;5052902;28;20190;-57
2022/03/11 11:10:30;;;;;;;14.73;9.70;;;;;;;12.34;37.95;95558.44;5052606;28;20177;-56
2022/03/11 11:12:56;;;;;;;12.27;9.37;;;;;;;13.24;36.15;95561.13;5052597;28;20220;-57
2022/03/11 11:15:21;;;;;;;11.27;9.10;;;;;;;13.01;36.77;95552.88;5052623;28;20194;-57
2022/03/11 11:17:49;;;;;;;12.50;10.03;;;;;;;12.91;36.71;95548.28;5052845;28;20186;-59
2022/03/11 11:20:33;;;;;;;13.60;9.57;;;;;;;11.54;38.74;95555.38;5052724;28;20182;-58
2022/03/11 11:23:03;;;;;;;13.20;10.17;;;;;;;11.00;39.36;95558.19;5052771;28;20209;-59